sensor_id;sensor_type;location;lat;lon;timestamp;P1;durP1;ratioP1;P2;durP2;ratioP2
11245;SDS011;59870;50.106;8.580;2022-09-14T00:01:30;14.17;;;12.97;;
11245;SDS011;59870;50.106;8.580;2022-09-14T00:04:00;14.90;;;13.53;;
11245;SDS011;59870;50.106;8.580;2022-09-14T00:06:33;17.10;;;15.50;;
11245;SDS011;59870;50.106;8.580;2022-09-14T00:09:01;17.40;;;14.93;;
11245;SDS011;59870;50.106;8.580;2022-09-14T00:11:32;16.60;;;15.00;;
11245;SDS011;59870;50.106;8.580;2022-09-14T00:14:01;16.03;;;14.53;;
11245;SDS011;59870;50.106;8.580;2022-09-14T00:16:30;17.03;;;15.17;;
11245;SDS011;59870;50.106;8.580;2022-09-14T00:19:01;16.83;;;15.10;;
11245;SDS011;59870;50.106;8.580;2022-09-14T00:21:35;15.77;;;14.33;;
11245;SDS011;59870;50.106;8.580;2022-09-14T00:24:04;14.97;;;13.63;;
11245;SDS011;59870;50.106;8.580;2022-09-14T00:26:33;16.07;;;14.77;;
11245;SDS011;59870;50.106;8.580;2022-09-14T00:29:01;16.03;;;14.70;;
11245;SDS011;59870;50.106;8.580;2022-09-14T00:31:31;15.63;;;14.20;;
11245;SDS011;59870;50.106;8.580;2022-09-14T00:34:00;16.60;;;15.10;;
11245;SDS011;59870;50.106;8.580;2022-09-14T00:36:29;16.07;;;14.40;;
11245;SDS011;59870;50.106;8.580;2022-09-14T00:38:57;16.83;;;15.13;;
11245;SDS011;59870;50.106;8.580;2022-09-14T00:41:28;16.00;;;14.30;;
11245;SDS011;59870;50.106;8.580;2022-09-14T00:43:58;17.13;;;15.43;;
11245;SDS011;59870;50.106;8.580;2022-09-14T00:46:29;17.00;;;15.37;;
11245;SDS011;59870;50.106;8.580;2022-09-14T00:48:58;18.50;;;16.90;;
11245;SDS011;59870;50.106;8.580;2022-09-14T00:51:28;19.10;;;17.33;;
11245;SDS011;59870;50.106;8.580;2022-09-14T00:54:02;18.23;;;16.53;;
11245;SDS011;59870;50.106;8.580;2022-09-14T00:56:30;18.13;;;16.27;;
11245;SDS011;59870;50.106;8.580;2022-09-14T00:58:58;18.07;;;16.47;;
11245;SDS011;59870;50.106;8.580;2022-09-14T01:01:30;16.80;;;15.40;;
11245;SDS011;59870;50.106;8.580;2022-09-14T01:03:57;17.07;;;15.57;;
11245;SDS011;59870;50.106;8.580;2022-09-14T01:14:14;17.47;;;15.80;;
11245;SDS011;59870;50.106;8.580;2022-09-14T01:17:09;18.27;;;16.57;;
11245;SDS011;59870;50.106;8.580;2022-09-14T01:34:29;16.53;;;15.10;;
11245;SDS011;59870;50.106;8.580;2022-09-14T01:37:04;20.03;;;18.23;;
11245;SDS011;59870;50.106;8.580;2022-09-14T01:39:56;18.93;;;17.27;;
11245;SDS011;59870;50.106;8.580;2022-09-14T01:42:27;19.23;;;17.43;;
11245;SDS011;59870;50.106;8.580;2022-09-14T01:44:57;19.17;;;17.57;;
11245;SDS011;59870;50.106;8.580;2022-09-14T01:47:32;20.43;;;18.40;;
11245;SDS011;59870;50.106;8.580;2022-09-14T01:50:13;18.87;;;17.27;;
11245;SDS011;59870;50.106;8.580;2022-09-14T01:52:51;19.23;;;17.40;;
11245;SDS011;59870;50.106;8.580;2022-09-14T01:55:26;18.17;;;16.57;;
11245;SDS011;59870;50.106;8.580;2022-09-14T01:57:59;19.50;;;17.77;;
11245;SDS011;59870;50.106;8.580;2022-09-14T02:00:30;19.40;;;17.40;;
11245;SDS011;59870;50.106;8.580;2022-09-14T02:03:01;19.30;;;17.60;;
11245;SDS011;59870;50.106;8.580;2022-09-14T02:06:00;18.70;;;17.10;;
11245;SDS011;59870;50.106;8.580;2022-09-14T02:08:40;19.40;;;17.50;;
11245;SDS011;59870;50.106;8.580;2022-09-14T02:11:07;20.23;;;18.20;;
11245;SDS011;59870;50.106;8.580;2022-09-14T02:13:35;18.67;;;17.07;;
11245;SDS011;59870;50.106;8.580;2022-09-14T02:16:02;19.77;;;17.93;;
11245;SDS011;59870;50.106;8.580;2022-09-14T02:18:30;20.60;;;18.57;;
11245;SDS011;59870;50.106;8.580;2022-09-14T02:20:59;19.03;;;17.37;;
11245;SDS011;59870;50.106;8.580;2022-09-14T02:23:30;18.77;;;17.27;;
11245;SDS011;59870;50.106;8.580;2022-09-14T02:25:57;18.63;;;17.03;;
11245;SDS011;59870;50.106;8.580;2022-09-14T02:28:25;18.80;;;16.93;;
11245;SDS011;59870;50.106;8.580;2022-09-14T02:31:14;19.47;;;17.47;;
11245;SDS011;59870;50.106;8.580;2022-09-14T02:36:53;19.73;;;17.67;;
11245;SDS011;59870;50.106;8.580;2022-09-14T02:56:14;19.47;;;17.90;;
11245;SDS011;59870;50.106;8.580;2022-09-14T02:58:43;19.30;;;17.70;;
11245;SDS011;59870;50.106;8.580;2022-09-14T03:01:12;19.77;;;17.87;;
11245;SDS011;59870;50.106;8.580;2022-09-14T03:03:42;19.27;;;17.37;;
11245;SDS011;59870;50.106;8.580;2022-09-14T03:06:10;18.33;;;16.73;;
11245;SDS011;59870;50.106;8.580;2022-09-14T03:08:37;18.37;;;16.90;;
11245;SDS011;59870;50.106;8.580;2022-09-14T03:11:05;19.03;;;17.23;;
11245;SDS011;59870;50.106;8.580;2022-09-14T03:13:33;17.67;;;16.23;;
11245;SDS011;59870;50.106;8.580;2022-09-14T03:16:05;18.23;;;16.53;;
11245;SDS011;59870;50.106;8.580;2022-09-14T03:18:34;19.20;;;17.53;;
11245;SDS011;59870;50.106;8.580;2022-09-14T03:21:13;18.70;;;17.00;;
11245;SDS011;59870;50.106;8.580;2022-09-14T03:23:44;17.80;;;16.23;;
11245;SDS011;59870;50.106;8.580;2022-09-14T03:26:14;16.93;;;15.63;;
11245;SDS011;59870;50.106;8.580;2022-09-14T03:28:50;18.73;;;16.90;;
11245;SDS011;59870;50.106;8.580;2022-09-14T03:31:19;18.07;;;16.57;;
11245;SDS011;59870;50.106;8.580;2022-09-14T03:33:51;18.20;;;16.70;;
11245;SDS011;59870;50.106;8.580;2022-09-14T03:36:21;18.23;;;16.37;;
11245;SDS011;59870;50.106;8.580;2022-09-14T03:38:50;17.30;;;15.90;;
11245;SDS011;59870;50.106;8.580;2022-09-14T03:41:19;17.63;;;15.83;;
11245;SDS011;59870;50.106;8.580;2022-09-14T03:43:48;17.03;;;15.63;;
11245;SDS011;59870;50.106;8.580;2022-09-14T03:46:16;16.90;;;15.50;;
11245;SDS011;59870;50.106;8.580;2022-09-14T03:48:47;16.60;;;15.00;;
11245;SDS011;59870;50.106;8.580;2022-09-14T03:51:15;16.37;;;14.93;;
11245;SDS011;59870;50.106;8.580;2022-09-14T03:53:43;15.63;;;14.27;;
11245;SDS011;59870;50.106;8.580;2022-09-14T03:56:13;16.23;;;14.13;;
11245;SDS011;59870;50.106;8.580;2022-09-14T03:58:46;15.93;;;14.47;;
11245;SDS011;59870;50.106;8.580;2022-09-14T04:01:15;15.80;;;14.47;;
11245;SDS011;59870;50.106;8.580;2022-09-14T04:03:44;14.97;;;13.57;;
11245;SDS011;59870;50.106;8.580;2022-09-14T04:06:12;14.97;;;13.67;;
11245;SDS011;59870;50.106;8.580;2022-09-14T04:08:42;14.87;;;13.67;;
11245;SDS011;59870;50.106;8.580;2022-09-14T04:14:01;15.87;;;14.50;;
11245;SDS011;59870;50.106;8.580;2022-09-14T04:16:30;15.90;;;14.50;;
11245;SDS011;59870;50.106;8.580;2022-09-14T04:18:57;15.70;;;14.40;;
11245;SDS011;59870;50.106;8.580;2022-09-14T04:21:25;16.60;;;14.97;;
11245;SDS011;59870;50.106;8.580;2022-09-14T04:23:54;16.87;;;15.27;;
11245;SDS011;59870;50.106;8.580;2022-09-14T04:26:41;18.73;;;16.93;;
11245;SDS011;59870;50.106;8.580;2022-09-14T04:29:11;19.23;;;17.53;;
11245;SDS011;59870;50.106;8.580;2022-09-14T04:31:39;18.13;;;16.30;;
11245;SDS011;59870;50.106;8.580;2022-09-14T04:34:08;17.63;;;15.93;;
11245;SDS011;59870;50.106;8.580;2022-09-14T04:36:38;18.23;;;16.53;;
11245;SDS011;59870;50.106;8.580;2022-09-14T04:39:06;18.77;;;17.07;;
11245;SDS011;59870;50.106;8.580;2022-09-14T04:41:36;19.60;;;17.63;;
11245;SDS011;59870;50.106;8.580;2022-09-14T04:44:03;17.03;;;15.43;;
11245;SDS011;59870;50.106;8.580;2022-09-14T04:46:31;18.37;;;16.77;;
11245;SDS011;59870;50.106;8.580;2022-09-14T04:49:02;18.60;;;17.00;;
11245;SDS011;59870;50.106;8.580;2022-09-14T04:51:30;20.90;;;18.87;;
11245;SDS011;59870;50.106;8.580;2022-09-14T04:54:00;20.50;;;18.53;;
11245;SDS011;59870;50.106;8.580;2022-09-14T04:56:30;19.57;;;17.50;;
11245;SDS011;59870;50.106;8.580;2022-09-14T04:58:59;20.37;;;18.57;;
11245;SDS011;59870;50.106;8.580;2022-09-14T05:01:31;19.13;;;17.23;;
11245;SDS011;59870;50.106;8.580;2022-09-14T05:04:01;20.40;;;18.40;;
11245;SDS011;59870;50.106;8.580;2022-09-14T05:06:31;22.57;;;20.43;;
11245;SDS011;59870;50.106;8.580;2022-09-14T05:09:00;25.00;;;22.27;;
11245;SDS011;59870;50.106;8.580;2022-09-14T05:11:31;20.30;;;18.40;;
11245;SDS011;59870;50.106;8.580;2022-09-14T05:14:00;22.70;;;19.33;;
11245;SDS011;59870;50.106;8.580;2022-09-14T05:16:53;20.57;;;18.50;;
11245;SDS011;59870;50.106;8.580;2022-09-14T05:19:22;19.80;;;18.00;;
11245;SDS011;59870;50.106;8.580;2022-09-14T05:21:49;20.23;;;18.23;;
11245;SDS011;59870;50.106;8.580;2022-09-14T05:24:18;20.67;;;18.87;;
11245;SDS011;59870;50.106;8.580;2022-09-14T05:26:45;16.10;;;14.70;;
11245;SDS011;59870;50.106;8.580;2022-09-14T05:29:15;16.43;;;15.13;;
11245;SDS011;59870;50.106;8.580;2022-09-14T05:31:43;14.43;;;13.27;;
11245;SDS011;59870;50.106;8.580;2022-09-14T05:34:12;14.57;;;13.33;;
11245;SDS011;59870;50.106;8.580;2022-09-14T05:40:02;12.63;;;11.73;;
11245;SDS011;59870;50.106;8.580;2022-09-14T05:54:35;8.57;;;8.07;;
11245;SDS011;59870;50.106;8.580;2022-09-14T05:57:03;10.30;;;9.33;;
11245;SDS011;59870;50.106;8.580;2022-09-14T05:59:30;9.30;;;8.53;;
11245;SDS011;59870;50.106;8.580;2022-09-14T06:01:59;9.97;;;9.17;;
11245;SDS011;59870;50.106;8.580;2022-09-14T06:04:27;10.80;;;9.37;;
11245;SDS011;59870;50.106;8.580;2022-09-14T06:06:55;8.77;;;8.17;;
11245;SDS011;59870;50.106;8.580;2022-09-14T06:09:42;9.30;;;8.70;;
11245;SDS011;59870;50.106;8.580;2022-09-14T06:12:09;8.80;;;8.20;;
11245;SDS011;59870;50.106;8.580;2022-09-14T06:14:40;8.60;;;8.07;;
11245;SDS011;59870;50.106;8.580;2022-09-14T06:17:07;9.07;;;8.47;;
11245;SDS011;59870;50.106;8.580;2022-09-14T06:19:34;9.07;;;8.47;;
11245;SDS011;59870;50.106;8.580;2022-09-14T06:22:02;8.83;;;8.30;;
11245;SDS011;59870;50.106;8.580;2022-09-14T06:24:29;7.97;;;7.53;;
11245;SDS011;59870;50.106;8.580;2022-09-14T06:26:57;9.67;;;8.97;;
11245;SDS011;59870;50.106;8.580;2022-09-14T06:29:25;10.27;;;9.57;;
11245;SDS011;59870;50.106;8.580;2022-09-14T06:31:52;9.23;;;8.50;;
11245;SDS011;59870;50.106;8.580;2022-09-14T06:34:20;8.93;;;8.33;;
11245;SDS011;59870;50.106;8.580;2022-09-14T06:36:47;8.67;;;7.97;;
11245;SDS011;59870;50.106;8.580;2022-09-14T06:39:14;8.17;;;7.63;;
11245;SDS011;59870;50.106;8.580;2022-09-14T06:41:42;8.63;;;7.93;;
11245;SDS011;59870;50.106;8.580;2022-09-14T06:44:17;8.43;;;7.83;;
11245;SDS011;59870;50.106;8.580;2022-09-14T06:46:45;9.00;;;8.40;;
11245;SDS011;59870;50.106;8.580;2022-09-14T06:49:14;8.30;;;7.63;;
11245;SDS011;59870;50.106;8.580;2022-09-14T06:51:46;7.80;;;7.30;;
11245;SDS011;59870;50.106;8.580;2022-09-14T06:54:14;7.73;;;7.30;;
11245;SDS011;59870;50.106;8.580;2022-09-14T06:56:44;7.53;;;6.93;;
11245;SDS011;59870;50.106;8.580;2022-09-14T06:59:27;7.57;;;6.13;;
11245;SDS011;59870;50.106;8.580;2022-09-14T07:01:54;7.57;;;6.73;;
11245;SDS011;59870;50.106;8.580;2022-09-14T07:04:30;6.57;;;6.10;;
11245;SDS011;59870;50.106;8.580;2022-09-14T07:06:59;6.97;;;6.57;;
11245;SDS011;59870;50.106;8.580;2022-09-14T07:09:26;6.87;;;6.40;;
11245;SDS011;59870;50.106;8.580;2022-09-14T07:11:55;6.73;;;6.33;;
11245;SDS011;59870;50.106;8.580;2022-09-14T07:14:22;7.23;;;6.70;;
11245;SDS011;59870;50.106;8.580;2022-09-14T07:16:49;8.57;;;7.57;;
11245;SDS011;59870;50.106;8.580;2022-09-14T07:19:16;7.37;;;6.97;;
11245;SDS011;59870;50.106;8.580;2022-09-14T07:21:44;6.83;;;6.50;;
11245;SDS011;59870;50.106;8.580;2022-09-14T07:24:12;7.47;;;6.73;;
11245;SDS011;59870;50.106;8.580;2022-09-14T07:26:41;7.20;;;6.60;;
11245;SDS011;59870;50.106;8.580;2022-09-14T07:29:12;6.87;;;6.33;;
11245;SDS011;59870;50.106;8.580;2022-09-14T07:31:45;7.20;;;6.63;;
11245;SDS011;59870;50.106;8.580;2022-09-14T07:34:14;7.90;;;7.43;;
11245;SDS011;59870;50.106;8.580;2022-09-14T07:36:43;7.50;;;6.60;;
11245;SDS011;59870;50.106;8.580;2022-09-14T07:39:11;6.23;;;5.83;;
11245;SDS011;59870;50.106;8.580;2022-09-14T07:41:40;6.53;;;6.13;;
11245;SDS011;59870;50.106;8.580;2022-09-14T07:44:11;6.70;;;6.30;;
11245;SDS011;59870;50.106;8.580;2022-09-14T07:46:41;7.03;;;6.53;;
11245;SDS011;59870;50.106;8.580;2022-09-14T07:49:10;7.33;;;6.83;;
11245;SDS011;59870;50.106;8.580;2022-09-14T07:51:39;6.77;;;6.27;;
11245;SDS011;59870;50.106;8.580;2022-09-14T07:54:07;6.30;;;5.90;;
11245;SDS011;59870;50.106;8.580;2022-09-14T07:56:38;6.67;;;6.13;;
11245;SDS011;59870;50.106;8.580;2022-09-14T07:59:06;8.13;;;7.37;;
11245;SDS011;59870;50.106;8.580;2022-09-14T08:01:56;6.47;;;5.83;;
11245;SDS011;59870;50.106;8.580;2022-09-14T08:04:24;6.90;;;6.40;;
11245;SDS011;59870;50.106;8.580;2022-09-14T08:06:52;7.13;;;6.73;;
11245;SDS011;59870;50.106;8.580;2022-09-14T08:09:19;7.20;;;6.53;;
11245;SDS011;59870;50.106;8.580;2022-09-14T08:11:47;6.40;;;6.00;;
11245;SDS011;59870;50.106;8.580;2022-09-14T08:14:14;6.87;;;6.37;;
11245;SDS011;59870;50.106;8.580;2022-09-14T08:16:41;6.67;;;6.03;;
11245;SDS011;59870;50.106;8.580;2022-09-14T08:19:16;6.20;;;5.60;;
11245;SDS011;59870;50.106;8.580;2022-09-14T08:21:46;6.20;;;5.73;;
11245;SDS011;59870;50.106;8.580;2022-09-14T08:24:15;6.10;;;5.80;;
11245;SDS011;59870;50.106;8.580;2022-09-14T08:26:44;6.80;;;6.20;;
11245;SDS011;59870;50.106;8.580;2022-09-14T08:29:12;6.37;;;5.97;;
11245;SDS011;59870;50.106;8.580;2022-09-14T08:31:41;6.53;;;5.93;;
11245;SDS011;59870;50.106;8.580;2022-09-14T08:34:11;6.73;;;6.13;;
11245;SDS011;59870;50.106;8.580;2022-09-14T08:36:39;5.47;;;5.03;;
11245;SDS011;59870;50.106;8.580;2022-09-14T08:39:09;6.17;;;5.77;;
11245;SDS011;59870;50.106;8.580;2022-09-14T08:41:51;6.37;;;5.67;;
11245;SDS011;59870;50.106;8.580;2022-09-14T08:46:59;6.37;;;5.93;;
11245;SDS011;59870;50.106;8.580;2022-09-14T08:52:32;6.10;;;5.80;;
11245;SDS011;59870;50.106;8.580;2022-09-14T08:57:59;7.20;;;6.23;;
11245;SDS011;59870;50.106;8.580;2022-09-14T09:00:43;6.50;;;6.00;;
11245;SDS011;59870;50.106;8.580;2022-09-14T09:05:53;7.03;;;6.43;;
11245;SDS011;59870;50.106;8.580;2022-09-14T09:11:45;7.13;;;6.47;;
11245;SDS011;59870;50.106;8.580;2022-09-14T09:17:21;6.23;;;5.83;;
11245;SDS011;59870;50.106;8.580;2022-09-14T09:22:30;6.70;;;6.30;;
11245;SDS011;59870;50.106;8.580;2022-09-14T09:25:17;6.07;;;5.40;;
11245;SDS011;59870;50.106;8.580;2022-09-14T09:27:49;6.30;;;5.83;;
11245;SDS011;59870;50.106;8.580;2022-09-14T09:30:19;5.83;;;5.43;;
11245;SDS011;59870;50.106;8.580;2022-09-14T09:32:46;5.73;;;5.33;;
11245;SDS011;59870;50.106;8.580;2022-09-14T09:35:36;6.07;;;5.77;;
11245;SDS011;59870;50.106;8.580;2022-09-14T09:38:17;6.40;;;6.00;;
11245;SDS011;59870;50.106;8.580;2022-09-14T09:41:34;6.73;;;5.70;;
11245;SDS011;59870;50.106;8.580;2022-09-14T09:43:58;8.63;;;6.20;;
11245;SDS011;59870;50.106;8.580;2022-09-14T09:46:31;8.33;;;5.67;;
11245;SDS011;59870;50.106;8.580;2022-09-14T09:49:28;5.80;;;5.40;;
11245;SDS011;59870;50.106;8.580;2022-09-14T09:51:54;7.00;;;6.40;;
11245;SDS011;59870;50.106;8.580;2022-09-14T09:54:24;6.10;;;5.80;;
11245;SDS011;59870;50.106;8.580;2022-09-14T09:56:56;6.20;;;5.80;;
11245;SDS011;59870;50.106;8.580;2022-09-14T10:07:24;6.47;;;6.00;;
11245;SDS011;59870;50.106;8.580;2022-09-14T10:09:56;5.53;;;5.23;;
11245;SDS011;59870;50.106;8.580;2022-09-14T10:12:26;6.57;;;6.27;;
11245;SDS011;59870;50.106;8.580;2022-09-14T10:17:52;5.80;;;5.50;;
11245;SDS011;59870;50.106;8.580;2022-09-14T10:20:23;5.60;;;5.10;;
11245;SDS011;59870;50.106;8.580;2022-09-14T10:22:51;6.57;;;6.03;;
11245;SDS011;59870;50.106;8.580;2022-09-14T10:25:23;5.47;;;5.07;;
11245;SDS011;59870;50.106;8.580;2022-09-14T10:30:33;5.73;;;5.33;;
11245;SDS011;59870;50.106;8.580;2022-09-14T10:33:07;5.50;;;5.10;;
11245;SDS011;59870;50.106;8.580;2022-09-14T10:38:32;5.50;;;5.10;;
11245;SDS011;59870;50.106;8.580;2022-09-14T10:41:23;4.80;;;4.50;;
11245;SDS011;59870;50.106;8.580;2022-09-14T10:46:29;5.70;;;5.30;;
11245;SDS011;59870;50.106;8.580;2022-09-14T10:51:56;6.47;;;5.97;;
11245;SDS011;59870;50.106;8.580;2022-09-14T10:54:37;6.63;;;6.23;;
11245;SDS011;59870;50.106;8.580;2022-09-14T11:00:26;6.70;;;6.13;;
11245;SDS011;59870;50.106;8.580;2022-09-14T11:06:00;6.10;;;5.80;;
11245;SDS011;59870;50.106;8.580;2022-09-14T11:09:10;6.03;;;5.70;;
11245;SDS011;59870;50.106;8.580;2022-09-14T11:12:11;5.77;;;5.47;;
11245;SDS011;59870;50.106;8.580;2022-09-14T11:20:27;6.00;;;5.70;;
11245;SDS011;59870;50.106;8.580;2022-09-14T11:25:52;6.27;;;5.87;;
11245;SDS011;59870;50.106;8.580;2022-09-14T11:28:28;6.57;;;6.07;;
11245;SDS011;59870;50.106;8.580;2022-09-14T11:34:37;7.40;;;6.90;;
11245;SDS011;59870;50.106;8.580;2022-09-14T11:37:10;6.00;;;5.60;;
11245;SDS011;59870;50.106;8.580;2022-09-14T11:39:47;5.97;;;5.57;;
11245;SDS011;59870;50.106;8.580;2022-09-14T11:42:44;6.50;;;6.10;;
11245;SDS011;59870;50.106;8.580;2022-09-14T11:45:33;7.23;;;6.63;;
11245;SDS011;59870;50.106;8.580;2022-09-14T11:53:48;6.67;;;6.07;;
11245;SDS011;59870;50.106;8.580;2022-09-14T11:56:24;7.40;;;6.67;;
11245;SDS011;59870;50.106;8.580;2022-09-14T11:58:57;6.47;;;6.13;;
11245;SDS011;59870;50.106;8.580;2022-09-14T12:01:34;8.50;;;7.73;;
11245;SDS011;59870;50.106;8.580;2022-09-14T12:06:40;8.17;;;7.67;;
11245;SDS011;59870;50.106;8.580;2022-09-14T12:11:57;8.60;;;8.10;;
11245;SDS011;59870;50.106;8.580;2022-09-14T12:17:04;7.77;;;7.27;;
11245;SDS011;59870;50.106;8.580;2022-09-14T12:20:45;8.90;;;8.33;;
11245;SDS011;59870;50.106;8.580;2022-09-14T12:36:01;9.03;;;8.13;;
11245;SDS011;59870;50.106;8.580;2022-09-14T12:40:56;7.13;;;6.70;;
11245;SDS011;59870;50.106;8.580;2022-09-14T12:54:16;8.30;;;7.70;;
11245;SDS011;59870;50.106;8.580;2022-09-14T12:56:53;8.07;;;7.57;;
11245;SDS011;59870;50.106;8.580;2022-09-14T13:05:00;8.90;;;8.23;;
11245;SDS011;59870;50.106;8.580;2022-09-14T13:11:01;9.07;;;8.37;;
11245;SDS011;59870;50.106;8.580;2022-09-14T13:13:31;10.10;;;9.07;;
11245;SDS011;59870;50.106;8.580;2022-09-14T13:16:00;9.27;;;8.63;;
11245;SDS011;59870;50.106;8.580;2022-09-14T13:18:32;9.40;;;8.70;;
11245;SDS011;59870;50.106;8.580;2022-09-14T13:21:18;10.10;;;9.40;;
11245;SDS011;59870;50.106;8.580;2022-09-14T13:23:47;10.43;;;9.53;;
11245;SDS011;59870;50.106;8.580;2022-09-14T13:26:24;9.43;;;8.60;;
11245;SDS011;59870;50.106;8.580;2022-09-14T13:28:54;8.93;;;8.20;;
11245;SDS011;59870;50.106;8.580;2022-09-14T13:34:00;8.97;;;8.27;;
11245;SDS011;59870;50.106;8.580;2022-09-14T13:36:35;9.10;;;8.23;;
11245;SDS011;59870;50.106;8.580;2022-09-14T13:39:11;9.43;;;8.67;;
11245;SDS011;59870;50.106;8.580;2022-09-14T13:41:49;9.87;;;9.07;;
11245;SDS011;59870;50.106;8.580;2022-09-14T13:44:18;9.00;;;8.40;;
11245;SDS011;59870;50.106;8.580;2022-09-14T13:47:12;9.07;;;8.47;;
11245;SDS011;59870;50.106;8.580;2022-09-14T13:49:42;9.47;;;8.77;;
11245;SDS011;59870;50.106;8.580;2022-09-14T13:55:13;10.23;;;9.23;;
11245;SDS011;59870;50.106;8.580;2022-09-14T14:00:30;9.33;;;8.30;;
11245;SDS011;59870;50.106;8.580;2022-09-14T14:03:00;9.20;;;8.60;;
11245;SDS011;59870;50.106;8.580;2022-09-14T14:05:33;9.27;;;8.67;;
11245;SDS011;59870;50.106;8.580;2022-09-14T14:08:23;10.03;;;9.23;;
11245;SDS011;59870;50.106;8.580;2022-09-14T14:11:05;10.77;;;9.50;;
11245;SDS011;59870;50.106;8.580;2022-09-14T14:13:35;8.93;;;8.20;;
11245;SDS011;59870;50.106;8.580;2022-09-14T14:16:20;9.27;;;8.47;;
11245;SDS011;59870;50.106;8.580;2022-09-14T14:18:51;9.30;;;8.40;;
11245;SDS011;59870;50.106;8.580;2022-09-14T14:23:51;9.33;;;8.63;;
11245;SDS011;59870;50.106;8.580;2022-09-14T14:26:38;9.80;;;9.03;;
11245;SDS011;59870;50.106;8.580;2022-09-14T14:29:13;10.57;;;9.47;;
11245;SDS011;59870;50.106;8.580;2022-09-14T14:31:42;9.43;;;8.80;;
11245;SDS011;59870;50.106;8.580;2022-09-14T14:34:11;9.70;;;8.80;;
11245;SDS011;59870;50.106;8.580;2022-09-14T14:36:44;9.53;;;8.83;;
11245;SDS011;59870;50.106;8.580;2022-09-14T14:39:13;9.97;;;9.27;;
11245;SDS011;59870;50.106;8.580;2022-09-14T14:41:42;10.37;;;9.37;;
11245;SDS011;59870;50.106;8.580;2022-09-14T14:44:15;10.03;;;9.10;;
11245;SDS011;59870;50.106;8.580;2022-09-14T14:46:46;10.07;;;9.37;;
11245;SDS011;59870;50.106;8.580;2022-09-14T14:49:14;10.40;;;9.63;;
11245;SDS011;59870;50.106;8.580;2022-09-14T14:51:43;10.83;;;9.90;;
11245;SDS011;59870;50.106;8.580;2022-09-14T14:54:11;10.80;;;9.87;;
11245;SDS011;59870;50.106;8.580;2022-09-14T14:56:45;10.27;;;9.50;;
11245;SDS011;59870;50.106;8.580;2022-09-14T15:01:47;10.83;;;10.03;;
11245;SDS011;59870;50.106;8.580;2022-09-14T15:04:16;11.00;;;10.00;;
11245;SDS011;59870;50.106;8.580;2022-09-14T15:06:44;10.33;;;9.53;;
11245;SDS011;59870;50.106;8.580;2022-09-14T15:09:13;14.60;;;10.47;;
11245;SDS011;59870;50.106;8.580;2022-09-14T15:11:58;10.60;;;9.60;;
11245;SDS011;59870;50.106;8.580;2022-09-14T15:14:26;12.07;;;11.00;;
11245;SDS011;59870;50.106;8.580;2022-09-14T15:16:54;10.73;;;9.73;;
11245;SDS011;59870;50.106;8.580;2022-09-14T15:19:25;10.97;;;10.00;;
11245;SDS011;59870;50.106;8.580;2022-09-14T15:21:53;11.67;;;10.83;;
11245;SDS011;59870;50.106;8.580;2022-09-14T15:24:27;11.67;;;10.50;;
11245;SDS011;59870;50.106;8.580;2022-09-14T15:26:54;11.27;;;10.47;;
11245;SDS011;59870;50.106;8.580;2022-09-14T15:29:22;11.53;;;10.53;;
11245;SDS011;59870;50.106;8.580;2022-09-14T15:31:49;11.57;;;10.37;;
11245;SDS011;59870;50.106;8.580;2022-09-14T15:34:17;11.07;;;10.07;;
11245;SDS011;59870;50.106;8.580;2022-09-14T15:36:46;11.53;;;10.63;;
11245;SDS011;59870;50.106;8.580;2022-09-14T15:39:22;11.20;;;10.27;;
11245;SDS011;59870;50.106;8.580;2022-09-14T15:41:51;11.27;;;10.17;;
11245;SDS011;59870;50.106;8.580;2022-09-14T15:44:19;12.37;;;10.10;;
11245;SDS011;59870;50.106;8.580;2022-09-14T15:46:47;12.87;;;11.67;;
11245;SDS011;59870;50.106;8.580;2022-09-14T15:49:16;12.10;;;11.00;;
11245;SDS011;59870;50.106;8.580;2022-09-14T15:51:47;12.00;;;10.97;;
11245;SDS011;59870;50.106;8.580;2022-09-14T15:54:19;12.20;;;11.10;;
11245;SDS011;59870;50.106;8.580;2022-09-14T15:56:50;12.77;;;11.57;;
11245;SDS011;59870;50.106;8.580;2022-09-14T15:59:20;11.73;;;10.80;;
11245;SDS011;59870;50.106;8.580;2022-09-14T16:01:47;13.10;;;11.87;;
11245;SDS011;59870;50.106;8.580;2022-09-14T16:04:16;12.60;;;11.40;;
11245;SDS011;59870;50.106;8.580;2022-09-14T16:06:44;13.10;;;11.47;;
11245;SDS011;59870;50.106;8.580;2022-09-14T16:09:12;13.50;;;12.17;;
11245;SDS011;59870;50.106;8.580;2022-09-14T16:11:41;14.77;;;13.27;;
11245;SDS011;59870;50.106;8.580;2022-09-14T16:14:09;14.50;;;13.07;;
11245;SDS011;59870;50.106;8.580;2022-09-14T16:16:37;12.27;;;10.87;;
11245;SDS011;59870;50.106;8.580;2022-09-14T16:19:06;12.67;;;11.47;;
11245;SDS011;59870;50.106;8.580;2022-09-14T16:21:35;14.60;;;12.27;;
11245;SDS011;59870;50.106;8.580;2022-09-14T16:24:04;16.80;;;13.27;;
11245;SDS011;59870;50.106;8.580;2022-09-14T16:26:34;13.20;;;11.87;;
11245;SDS011;59870;50.106;8.580;2022-09-14T16:29:03;13.57;;;9.67;;
11245;SDS011;59870;50.106;8.580;2022-09-14T16:31:32;11.23;;;10.23;;
11245;SDS011;59870;50.106;8.580;2022-09-14T16:34:02;12.73;;;11.37;;
11245;SDS011;59870;50.106;8.580;2022-09-14T16:36:33;11.17;;;10.27;;
11245;SDS011;59870;50.106;8.580;2022-09-14T16:39:03;11.93;;;10.83;;
11245;SDS011;59870;50.106;8.580;2022-09-14T16:41:35;11.90;;;10.73;;
11245;SDS011;59870;50.106;8.580;2022-09-14T16:44:05;11.57;;;10.67;;
11245;SDS011;59870;50.106;8.580;2022-09-14T16:46:32;10.27;;;9.33;;
11245;SDS011;59870;50.106;8.580;2022-09-14T16:49:00;12.43;;;10.27;;
11245;SDS011;59870;50.106;8.580;2022-09-14T16:51:29;14.87;;;11.27;;
11245;SDS011;59870;50.106;8.580;2022-09-14T16:53:58;11.50;;;10.50;;
11245;SDS011;59870;50.106;8.580;2022-09-14T16:56:29;12.20;;;10.63;;
11245;SDS011;59870;50.106;8.580;2022-09-14T16:58:58;12.07;;;11.10;;
11245;SDS011;59870;50.106;8.580;2022-09-14T17:01:31;11.80;;;10.87;;
11245;SDS011;59870;50.106;8.580;2022-09-14T17:04:10;11.37;;;10.33;;
11245;SDS011;59870;50.106;8.580;2022-09-14T17:06:43;11.23;;;10.23;;
11245;SDS011;59870;50.106;8.580;2022-09-14T17:09:13;10.87;;;9.53;;
11245;SDS011;59870;50.106;8.580;2022-09-14T17:11:46;10.63;;;9.73;;
11245;SDS011;59870;50.106;8.580;2022-09-14T17:14:15;9.30;;;8.60;;
11245;SDS011;59870;50.106;8.580;2022-09-14T17:16:46;9.00;;;8.13;;
11245;SDS011;59870;50.106;8.580;2022-09-14T17:19:15;8.17;;;7.53;;
11245;SDS011;59870;50.106;8.580;2022-09-14T17:21:43;8.43;;;7.73;;
11245;SDS011;59870;50.106;8.580;2022-09-14T17:24:12;8.40;;;7.60;;
11245;SDS011;59870;50.106;8.580;2022-09-14T17:26:40;6.90;;;6.40;;
11245;SDS011;59870;50.106;8.580;2022-09-14T17:29:09;9.77;;;7.60;;
11245;SDS011;59870;50.106;8.580;2022-09-14T17:31:38;9.77;;;8.77;;
11245;SDS011;59870;50.106;8.580;2022-09-14T17:34:07;9.13;;;8.23;;
11245;SDS011;59870;50.106;8.580;2022-09-14T17:36:53;8.50;;;7.80;;
11245;SDS011;59870;50.106;8.580;2022-09-14T17:39:38;7.20;;;5.93;;
11245;SDS011;59870;50.106;8.580;2022-09-14T17:42:17;6.87;;;6.27;;
11245;SDS011;59870;50.106;8.580;2022-09-14T17:44:47;6.70;;;5.87;;
11245;SDS011;59870;50.106;8.580;2022-09-14T17:47:14;7.50;;;6.77;;
11245;SDS011;59870;50.106;8.580;2022-09-14T17:52:42;7.07;;;6.57;;
11245;SDS011;59870;50.106;8.580;2022-09-14T17:55:12;9.00;;;7.10;;
11245;SDS011;59870;50.106;8.580;2022-09-14T17:57:42;6.57;;;5.93;;
11245;SDS011;59870;50.106;8.580;2022-09-14T18:00:12;5.97;;;5.57;;
11245;SDS011;59870;50.106;8.580;2022-09-14T18:09:27;6.20;;;5.60;;
11245;SDS011;59870;50.106;8.580;2022-09-14T18:14:42;5.87;;;5.47;;
11245;SDS011;59870;50.106;8.580;2022-09-14T18:17:09;5.80;;;5.37;;
11245;SDS011;59870;50.106;8.580;2022-09-14T18:19:39;5.80;;;5.30;;